Time;durP1;ratioP1;P1;durP2;ratioP2;P2;SDS_P1;SDS_P2;PMS_P1;PMS_P2;Temp;Humidity;BMP_temperature;BMP_pressure;BME280_temperature;BME280_humidity;BME280_pressure;Samples;Min_cycle;Max_cycle;Signal;HPM_P1;HPM_P2
2024/02/27 00:02:07;;;;;;;42.88;15.73;;;;;;;2.52;100.00;100939.09;5073835;28;20790;-81
2024/02/27 00:04:35;;;;;;;44.53;15.82;;;;;;;2.42;100.00;100936.91;5057605;28;21219;-82
2024/02/27 00:07:11;;;;;;;42.03;16.10;;;;;;;2.49;100.00;100934.97;5057663;28;20915;-83
2024/02/27 00:09:45;;;;;;;42.03;16.37;;;;;;;2.34;100.00;100942.53;5074393;28;20420;-82
2024/02/27 00:12:18;;;;;;;43.53;17.08;;;;;;;2.24;100.00;100939.50;5074352;28;20420;-82
2024/02/27 00:14:52;;;;;;;40.35;15.38;;;;;;;2.28;100.00;100943.41;5058340;28;22230;-82
2024/02/27 00:17:27;;;;;;;36.20;14.27;;;;;;;2.26;100.00;100951.66;5057003;28;20544;-81
2024/02/27 00:19:55;;;;;;;40.78;16.08;;;;;;;2.33;100.00;100954.31;5073113;28;20423;-82
2024/02/27 00:22:28;;;;;;;42.15;15.35;;;;;;;2.26;100.00;100962.41;5056187;28;20433;-82
2024/02/27 00:24:56;;;;;;;39.00;15.15;;;;;;;2.28;100.00;100973.78;5075836;28;20421;-82
2024/02/27 00:27:24;;;;;;;39.80;15.80;;;;;;;2.34;100.00;100969.41;5060085;28;21381;-81
2024/02/27 00:29:53;;;;;;;40.53;15.38;;;;;;;2.32;100.00;100974.16;5059306;28;20426;-81
2024/02/27 00:32:21;;;;;;;41.40;16.08;;;;;;;2.36;100.00;100976.19;5060355;28;20431;-82
2024/02/27 00:34:56;;;;;;;40.10;15.73;;;;;;;2.37;100.00;100974.31;5070710;28;20416;-82
2024/02/27 00:37:29;;;;;;;40.83;15.87;;;;;;;2.39;100.00;100977.63;5072556;28;20462;-81
2024/02/27 00:40:04;;;;;;;40.90;15.82;;;;;;;2.35;100.00;100979.91;5057148;28;20517;-81
2024/02/27 00:42:32;;;;;;;37.47;13.52;;;;;;;2.28;100.00;100981.84;5055663;28;20431;-82
2024/02/27 00:45:00;;;;;;;44.50;16.08;;;;;;;2.34;100.00;100989.00;5072632;28;20429;-82
2024/02/27 00:47:33;;;;;;;41.23;16.53;;;;;;;2.20;100.00;100993.66;5054391;28;20539;-82
2024/02/27 00:50:03;;;;;;;43.45;17.10;;;;;;;2.22;100.00;100993.44;5070213;28;22375;-82
2024/02/27 00:52:31;;;;;;;48.67;19.25;;;;;;;2.25;100.00;100992.19;5057764;28;20429;-81
2024/02/27 00:54:59;;;;;;;48.77;18.23;;;;;;;2.44;100.00;100985.03;5060346;28;20421;-82
2024/02/27 00:57:27;;;;;;;50.97;18.55;;;;;;;2.45;100.00;100978.63;5064712;28;20436;-81
2024/02/27 01:00:08;;;;;;;45.72;17.15;;;;;;;2.50;100.00;100984.97;5059798;28;20438;-81
2024/02/27 01:02:36;;;;;;;38.05;14.52;;;;;;;2.42;100.00;100981.72;5074259;28;20430;-81
2024/02/27 01:05:11;;;;;;;47.20;18.27;;;;;;;2.47;100.00;100988.13;5053400;28;20468;-81
2024/02/27 01:07:44;;;;;;;43.03;16.67;;;;;;;2.50;100.00;100998.41;5072825;28;20419;-81
2024/02/27 01:10:18;;;;;;;45.90;18.77;;;;;;;2.38;100.00;101000.16;5074404;28;20432;-81
2024/02/27 01:12:51;;;;;;;51.83;19.85;;;;;;;2.37;100.00;101009.25;5074786;28;20432;-82
2024/02/27 01:15:19;;;;;;;48.00;18.65;;;;;;;2.40;100.00;100998.06;5073009;28;20422;-82
2024/02/27 01:17:48;;;;;;;53.13;18.73;;;;;;;2.53;100.00;101002.53;5077186;28;20440;-81
2024/02/27 01:20:22;;;;;;;48.83;17.70;;;;;;;2.38;100.00;101000.16;5056727;28;20921;-81
2024/02/27 01:22:56;;;;;;;49.33;18.23;;;;;;;2.42;100.00;100995.16;5070521;28;20429;-81
2024/02/27 01:25:29;;;;;;;44.03;18.80;;;;;;;2.63;100.00;101002.03;5073485;28;20423;-81
2024/02/27 01:28:02;;;;;;;45.15;18.77;;;;;;;2.62;100.00;101003.06;5055360;28;20772;-81
2024/02/27 01:30:36;;;;;;;42.92;18.17;;;;;;;2.55;100.00;101011.19;5071110;28;20429;-81
2024/02/27 01:33:05;;;;;;;50.15;19.95;;;;;;;2.49;100.00;101007.50;5072254;28;20439;-82
2024/02/27 01:35:34;;;;;;;45.97;17.83;;;;;;;2.47;100.00;101011.44;5053854;28;20419;-81
2024/02/27 01:38:08;;;;;;;49.50;19.83;;;;;;;2.54;100.00;100998.78;5054703;28;20918;-82
2024/02/27 01:40:41;;;;;;;41.92;16.98;;;;;;;2.48;100.00;101005.03;5058668;28;20791;-81
2024/02/27 01:43:20;;;;;;;49.10;19.20;;;;;;;2.46;100.00;101009.78;5076429;28;20712;-81
2024/02/27 01:46:04;;;;;;;44.57;17.30;;;;;;;2.60;100.00;101010.53;5073078;28;20531;-81
2024/02/27 01:48:38;;;;;;;49.65;20.08;;;;;;;2.45;100.00;101003.59;5064479;28;20422;-81
2024/02/27 01:51:14;;;;;;;45.60;18.23;;;;;;;2.46;100.00;101012.47;5075026;28;20813;-81
2024/02/27 01:53:50;;;;;;;46.67;18.17;;;;;;;2.36;100.00;101003.06;5073205;28;20428;-81
2024/02/27 01:56:24;;;;;;;49.63;18.95;;;;;;;2.33;100.00;101003.47;5086555;28;20468;-82
2024/02/27 01:58:58;;;;;;;43.17;17.48;;;;;;;2.31;100.00;101007.44;5071537;28;20420;-81
2024/02/27 02:01:31;;;;;;;52.67;19.30;;;;;;;2.33;100.00;101010.72;5087296;28;20406;-81
2024/02/27 02:04:07;;;;;;;46.75;17.95;;;;;;;2.33;100.00;101010.72;5063281;28;20423;-81
2024/02/27 02:06:42;;;;;;;40.67;15.35;;;;;;;2.34;100.00;101012.38;5063526;28;20420;-81
2024/02/27 02:09:15;;;;;;;47.67;19.20;;;;;;;2.28;100.00;101007.84;5072988;28;20429;-81
2024/02/27 02:11:48;;;;;;;49.47;20.00;;;;;;;2.35;100.00;101016.72;5067137;28;20415;-81
2024/02/27 02:14:19;;;;;;;49.65;19.05;;;;;;;2.43;100.00;101018.28;5070280;28;20444;-81
2024/02/27 02:16:52;;;;;;;46.33;18.00;;;;;;;2.45;100.00;101016.22;5082225;28;20442;-81
2024/02/27 02:19:21;;;;;;;49.25;18.80;;;;;;;2.36;100.00;101012.97;5081192;28;20412;-81
2024/02/27 02:21:56;;;;;;;45.40;17.58;;;;;;;2.41;100.00;101021.19;5079698;28;20408;-81
2024/02/27 02:24:29;;;;;;;40.65;16.50;;;;;;;2.44;100.00;101023.44;5085553;28;20438;-81
2024/02/27 02:27:03;;;;;;;47.92;20.08;;;;;;;2.24;100.00;101020.06;5066661;28;20431;-81
2024/02/27 02:29:31;;;;;;;42.08;17.08;;;;;;;2.37;100.00;101028.84;5064079;28;20418;-81
2024/02/27 02:32:05;;;;;;;48.55;19.70;;;;;;;2.36;100.00;101029.91;5064440;28;20418;-81
2024/02/27 02:34:33;;;;;;;46.20;18.90;;;;;;;2.45;100.00;101040.41;5069406;28;21143;-81
2024/02/27 02:37:03;;;;;;;44.63;18.00;;;;;;;2.40;100.00;101034.84;5085189;28;20440;-81
2024/02/27 02:39:31;;;;;;;46.10;18.52;;;;;;;2.40;100.00;101038.34;5082167;28;20840;-81
2024/02/27 02:42:04;;;;;;;46.75;19.27;;;;;;;2.34;100.00;101037.34;5082416;28;20424;-81
2024/02/27 02:44:37;;;;;;;40.92;17.50;;;;;;;2.44;100.00;101047.63;5067911;28;20421;-81
2024/02/27 02:47:05;;;;;;;44.13;18.20;;;;;;;2.35;100.00;101049.75;5066596;28;20419;-81
2024/02/27 02:49:39;;;;;;;46.20;18.20;;;;;;;2.42;100.00;101044.34;5068282;28;20420;-81
2024/02/27 02:52:13;;;;;;;45.00;18.65;;;;;;;2.44;100.00;101052.19;5065782;28;20429;-81
2024/02/27 02:54:41;;;;;;;50.08;18.60;;;;;;;2.40;100.00;101048.28;5087227;28;20427;-81
2024/02/27 02:57:16;;;;;;;50.13;19.40;;;;;;;2.27;100.00;101050.00;5064394;28;20425;-81
2024/02/27 02:59:49;;;;;;;38.50;16.50;;;;;;;2.18;100.00;101052.13;5079829;28;20876;-81
2024/02/27 03:02:22;;;;;;;45.22;17.10;;;;;;;2.20;100.00;101052.72;5080393;28;20420;-82
2024/02/27 03:04:50;;;;;;;38.00;16.65;;;;;;;2.14;100.00;101042.00;5088446;28;20410;-81
2024/02/27 03:07:25;;;;;;;37.05;16.02;;;;;;;2.23;100.00;101053.34;5066214;28;20428;-81
2024/02/27 03:09:58;;;;;;;34.40;15.33;;;;;;;2.09;100.00;101049.91;5081648;28;20413;-81
2024/02/27 03:12:26;;;;;;;35.83;15.52;;;;;;;2.28;100.00;101056.19;5064250;28;20417;-81
2024/02/27 03:14:59;;;;;;;36.57;16.03;;;;;;;2.21;100.00;101064.31;5083629;28;20479;-82
2024/02/27 03:17:33;;;;;;;38.25;16.52;;;;;;;2.10;100.00;101054.22;5064054;28;20906;-81
2024/02/27 03:20:09;;;;;;;37.78;15.38;;;;;;;2.34;100.00;101063.41;5083656;28;20415;-81
2024/02/27 03:22:38;;;;;;;39.40;16.58;;;;;;;2.18;100.00;101059.34;5063671;28;20418;-81
2024/02/27 03:25:08;;;;;;;35.78;14.20;;;;;;;2.12;100.00;101062.91;5085195;28;20413;-81
2024/02/27 03:27:41;;;;;;;34.57;13.93;;;;;;;2.02;100.00;101060.69;5064817;28;20509;-81
2024/02/27 03:30:17;;;;;;;35.15;13.77;;;;;;;1.82;100.00;101066.94;5081323;28;20421;-81
2024/02/27 03:32:51;;;;;;;27.70;11.93;;;;;;;1.78;100.00;101075.63;5084010;28;20419;-81
2024/02/27 03:35:24;;;;;;;31.27;12.73;;;;;;;1.69;100.00;101078.53;5081717;28;20413;-81
2024/02/27 03:37:58;;;;;;;28.77;12.00;;;;;;;1.75;100.00;101076.88;5085241;28;20413;-81
2024/02/27 03:40:31;;;;;;;32.60;13.32;;;;;;;1.66;100.00;101081.66;5080889;28;20985;-81
2024/02/27 03:43:05;;;;;;;29.23;12.23;;;;;;;1.72;100.00;101077.28;5063070;28;20417;-81
2024/02/27 03:45:38;;;;;;;37.20;14.15;;;;;;;1.57;100.00;101085.56;5064745;28;20422;-81
2024/02/27 03:48:11;;;;;;;32.28;13.18;;;;;;;1.69;100.00;101075.03;5060772;28;20431;-81
2024/02/27 03:50:44;;;;;;;41.22;14.95;;;;;;;1.76;100.00;101085.75;5063545;28;20423;-81
2024/02/27 03:53:18;;;;;;;37.38;14.82;;;;;;;1.60;100.00;101089.72;5077310;28;20829;-81
2024/02/27 03:55:52;;;;;;;41.50;14.65;;;;;;;1.67;100.00;101082.47;5059174;28;20423;-82
2024/02/27 03:58:20;;;;;;;30.67;12.57;;;;;;;1.65;100.00;101098.78;5062740;28;20438;-81
2024/02/27 04:00:54;;;;;;;39.58;15.00;;;;;;;1.63;100.00;101095.50;5061605;28;20916;-81
2024/02/27 04:03:27;;;;;;;42.75;15.45;;;;;;;1.71;100.00;101097.09;5082717;28;20418;-80
2024/02/27 04:06:00;;;;;;;40.55;15.25;;;;;;;1.71;100.00;101102.47;5067371;28;20422;-81
2024/02/27 04:08:35;;;;;;;43.20;16.23;;;;;;;1.70;100.00;101111.56;5069734;28;21024;-81
2024/02/27 04:11:08;;;;;;;41.85;15.70;;;;;;;1.85;100.00;101109.47;5076862;28;20416;-81
2024/02/27 04:13:41;;;;;;;45.53;16.95;;;;;;;1.75;100.00;101119.78;5077870;28;20908;-81
2024/02/27 04:16:14;;;;;;;41.50;16.30;;;;;;;1.74;100.00;101115.50;5054411;28;20407;-81
2024/02/27 04:18:47;;;;;;;37.45;14.45;;;;;;;1.70;100.00;101114.25;5081892;28;21059;-81
2024/02/27 04:21:21;;;;;;;51.55;18.13;;;;;;;1.70;100.00;101115.06;5067500;28;20423;-81
2024/02/27 04:23:55;;;;;;;48.00;18.15;;;;;;;1.84;100.00;101113.19;5078037;28;20929;-81
2024/02/27 04:26:24;;;;;;;41.95;16.30;;;;;;;1.76;100.00;101112.59;5064165;28;20434;-81
2024/02/27 04:28:52;;;;;;;50.23;18.27;;;;;;;1.76;100.00;101110.72;5077857;28;20428;-81
2024/02/27 04:31:20;;;;;;;35.03;13.23;;;;;;;1.72;100.00;101103.31;5079066;28;20784;-81
2024/02/27 04:33:54;;;;;;;47.33;17.80;;;;;;;1.77;100.00;101106.16;5068190;28;20429;-81
2024/02/27 04:36:22;;;;;;;59.20;16.90;;;;;;;1.70;100.00;101100.84;5079051;28;20882;-81
2024/02/27 04:38:50;;;;;;;39.50;16.65;;;;;;;1.61;100.00;101102.91;5071794;28;20432;-81
2024/02/27 04:41:25;;;;;;;37.42;14.82;;;;;;;1.63;100.00;101108.91;5062497;28;20427;-80
2024/02/27 04:43:53;;;;;;;31.53;11.97;;;;;;;1.54;100.00;101107.47;5056509;28;20496;-81
2024/02/27 04:46:26;;;;;;;50.08;17.58;;;;;;;1.50;100.00;101100.88;5080155;28;21054;-81
2024/02/27 04:48:59;;;;;;;46.75;16.70;;;;;;;1.59;100.00;101112.19;5076676;28;20424;-81
2024/02/27 04:51:28;;;;;;;48.53;16.25;;;;;;;1.61;100.00;101120.88;5063227;28;20415;-81
2024/02/27 04:54:01;;;;;;;43.27;16.53;;;;;;;1.66;100.00;101126.44;5064203;28;20433;-81
2024/02/27 04:56:30;;;;;;;47.22;17.02;;;;;;;1.74;100.00;101120.84;5061492;28;20423;-81
2024/02/27 04:59:03;;;;;;;39.00;14.63;;;;;;;1.68;100.00;101127.03;5075959;28;20424;-81
2024/02/27 05:01:37;;;;;;;38.15;15.63;;;;;;;1.60;100.00;101116.53;5057808;28;20771;-80
2024/02/27 05:04:10;;;;;;;34.63;14.15;;;;;;;1.61;100.00;101123.56;5061132;28;20423;-81
2024/02/27 05:06:43;;;;;;;42.35;16.80;;;;;;;1.68;100.00;101119.81;5076790;28;20434;-81
2024/02/27 05:09:11;;;;;;;43.30;15.93;;;;;;;1.59;100.00;101117.56;5078886;28;20411;-81
2024/02/27 05:11:44;;;;;;;42.95;15.70;;;;;;;1.54;100.00;101115.50;5062961;28;20426;-81
2024/02/27 05:14:12;;;;;;;39.35;15.75;;;;;;;1.61;100.00;101105.59;5070993;28;20436;-81
2024/02/27 05:16:40;;;;;;;47.10;15.63;;;;;;;1.59;100.00;101112.19;5062786;28;20413;-81
2024/02/27 05:19:13;;;;;;;38.47;14.30;;;;;;;1.64;100.00;101104.34;5077680;28;20411;-81
2024/02/27 05:21:41;;;;;;;45.67;15.37;;;;;;;1.59;100.00;101112.19;5065413;28;20415;-81
2024/02/27 05:24:09;;;;;;;40.72;13.40;;;;;;;1.61;100.00;101115.50;5072104;28;20411;-81
2024/02/27 05:26:38;;;;;;;40.22;14.48;;;;;;;1.57;100.00;101123.13;5057706;28;20436;-81
2024/02/27 05:29:12;;;;;;;43.60;15.82;;;;;;;1.48;100.00;101122.53;5068584;28;20412;-81
2024/02/27 05:31:45;;;;;;;36.35;13.25;;;;;;;1.58;100.00;101118.63;5056867;28;20426;-81
2024/02/27 05:34:18;;;;;;;39.03;15.57;;;;;;;1.60;100.00;101114.69;5074679;28;20411;-81
2024/02/27 05:36:47;;;;;;;36.92;14.00;;;;;;;1.48;100.00;101125.22;5059658;28;20442;-81
2024/02/27 05:39:21;;;;;;;30.05;11.98;;;;;;;1.55;100.00;101125.22;5065693;28;20437;-81
2024/02/27 05:41:49;;;;;;;36.80;13.95;;;;;;;1.59;100.00;101118.41;5060221;28;20434;-82
2024/02/27 05:44:23;;;;;;;35.05;14.30;;;;;;;1.59;100.00;101125.59;5075863;28;20424;-82
2024/02/27 05:46:57;;;;;;;40.25;15.13;;;;;;;1.68;100.00;101116.31;5065028;28;20429;-80
2024/02/27 05:49:30;;;;;;;37.88;14.57;;;;;;;1.60;100.00;101116.53;5061989;28;21081;-80
2024/02/27 05:52:04;;;;;;;40.97;14.38;;;;;;;1.60;100.00;101112.00;5065332;28;20423;-81
2024/02/27 05:54:37;;;;;;;32.55;12.82;;;;;;;1.49;100.00;101115.31;5069884;28;20421;-81
2024/02/27 05:57:05;;;;;;;26.75;11.60;;;;;;;1.48;100.00;101116.38;5083972;28;20448;-81
2024/02/27 05:59:40;;;;;;;32.38;14.10;;;;;;;1.42;100.00;101128.72;5060995;28;20426;-81
2024/02/27 06:02:14;;;;;;;38.60;14.43;;;;;;;1.46;100.00;101131.81;5078346;28;20430;-81
2024/02/27 06:04:47;;;;;;;33.97;14.85;;;;;;;1.46;100.00;101135.31;5058048;28;20427;-82
2024/02/27 06:07:16;;;;;;;38.80;14.57;;;;;;;1.59;100.00;101136.34;5062348;28;20434;-84
2024/02/27 06:09:44;;;;;;;36.95;14.90;;;;;;;1.50;100.00;101141.09;5066042;28;20416;-80
2024/02/27 06:12:17;;;;;;;32.38;12.95;;;;;;;1.50;100.00;101141.09;5055443;28;20443;-79
2024/02/27 06:14:54;;;;;;;37.40;15.65;;;;;;;1.45;100.00;101148.94;5074973;28;20428;-79
2024/02/27 06:17:27;;;;;;;35.65;14.15;;;;;;;1.51;100.00;101150.81;5064723;28;20434;-80
2024/02/27 06:20:03;;;;;;;31.83;12.70;;;;;;;1.46;100.00;101158.66;5060443;28;20432;-80
2024/02/27 06:22:31;;;;;;;30.42;13.70;;;;;;;1.44;100.00;101155.34;5057831;28;20436;-80
2024/02/27 06:24:59;;;;;;;35.60;13.95;;;;;;;1.44;100.00;101161.53;5059576;28;20942;-80
2024/02/27 06:27:32;;;;;;;28.27;12.18;;;;;;;1.51;100.00;101166.91;5056839;28;20917;-79
2024/02/27 06:30:02;;;;;;;31.23;12.93;;;;;;;1.58;100.00;101164.22;5078254;28;20427;-80
2024/02/27 06:32:35;;;;;;;31.60;13.67;;;;;;;1.61;100.00;101166.47;5076446;28;20428;-80
2024/02/27 06:35:10;;;;;;;32.10;13.13;;;;;;;1.59;100.00;101174.75;5076451;28;20422;-80
2024/02/27 06:37:38;;;;;;;30.80;13.32;;;;;;;1.70;100.00;101182.16;5077974;28;20430;-81
2024/02/27 06:40:12;;;;;;;30.63;13.48;;;;;;;1.58;100.00;101186.50;5058035;28;20426;-82
2024/02/27 06:42:41;;;;;;;26.60;12.18;;;;;;;1.51;100.00;101188.38;5054741;28;20433;-81
2024/02/27 06:45:16;;;;;;;26.50;12.18;;;;;;;1.50;100.00;101190.19;5058735;28;20416;-80
2024/02/27 06:47:44;;;;;;;29.08;12.45;;;;;;;1.52;100.00;101198.06;5062648;28;20782;-80
2024/02/27 06:50:18;;;;;;;28.98;12.43;;;;;;;1.47;100.00;101198.66;5075103;28;20435;-80
2024/02/27 06:52:51;;;;;;;22.52;10.10;;;;;;;1.51;100.00;101194.53;5062359;28;20433;-81
2024/02/27 06:55:19;;;;;;;25.58;11.77;;;;;;;1.45;100.00;101200.75;5060040;28;20789;-80
2024/02/27 06:57:53;;;;;;;24.85;10.93;;;;;;;1.42;100.00;101194.97;5060644;28;20428;-80
2024/02/27 07:00:22;;;;;;;24.57;11.37;;;;;;;1.42;100.00;101200.31;5065978;28;20422;-80
2024/02/27 07:02:50;;;;;;;25.73;11.90;;;;;;;1.52;100.00;101211.47;5079517;28;20422;-80
2024/02/27 07:05:26;;;;;;;24.60;12.00;;;;;;;1.61;100.00;101217.44;5079642;28;20417;-81
2024/02/27 07:07:54;;;;;;;27.20;12.03;;;;;;;1.52;100.00;101224.91;5077812;28;20418;-80
2024/02/27 07:10:22;;;;;;;24.95;12.02;;;;;;;1.49;100.00;101228.81;5072281;28;20463;-80
2024/02/27 07:12:50;;;;;;;22.87;11.27;;;;;;;1.51;100.00;101232.09;5076090;28;20432;-80
2024/02/27 07:15:25;;;;;;;25.92;11.25;;;;;;;1.51;100.00;101228.59;5082216;28;20927;-80
2024/02/27 07:17:53;;;;;;;21.90;10.20;;;;;;;1.53;100.00;101229.22;5062187;28;20773;-80
2024/02/27 07:20:21;;;;;;;26.25;12.05;;;;;;;1.55;100.00;101234.34;5080641;28;20422;-80
2024/02/27 07:22:56;;;;;;;25.17;11.60;;;;;;;1.55;100.00;101239.72;5079222;28;21212;-81
2024/02/27 07:25:25;;;;;;;22.77;11.30;;;;;;;1.58;100.00;101242.03;5038858;28;20451;-81
2024/02/27 07:27:54;;;;;;;23.35;11.60;;;;;;;1.57;100.00;101241.19;5057668;28;20429;-80
2024/02/27 07:30:25;;;;;;;21.13;10.67;;;;;;;1.66;100.00;101239.13;5039473;28;20466;-81
2024/02/27 07:32:58;;;;;;;23.42;11.55;;;;;;;1.79;100.00;101238.28;5043957;28;20426;-81
2024/02/27 07:35:32;;;;;;;19.85;9.88;;;;;;;1.80;100.00;101235.41;5056694;28;20430;-80
2024/02/27 07:38:05;;;;;;;24.52;11.75;;;;;;;1.82;100.00;101244.09;5051843;28;20426;-80
2024/02/27 07:40:38;;;;;;;21.43;10.33;;;;;;;1.66;100.00;101245.31;5048037;28;20484;-81
2024/02/27 07:43:11;;;;;;;23.13;11.50;;;;;;;1.82;100.00;101245.91;5066704;28;20422;-80
2024/02/27 07:45:41;;;;;;;20.60;10.70;;;;;;;1.72;100.00;101238.28;5044859;28;20475;-81
2024/02/27 07:48:14;;;;;;;20.02;9.35;;;;;;;1.73;100.00;101248.00;5059857;28;20426;-80
2024/02/27 07:50:42;;;;;;;22.98;11.38;;;;;;;1.79;100.00;101244.47;5057501;28;20422;-81
2024/02/27 07:53:17;;;;;;;21.45;11.20;;;;;;;1.82;100.00;101246.75;5045990;28;20422;-80
2024/02/27 07:55:46;;;;;;;23.37;10.90;;;;;;;1.97;100.00;101249.19;5058525;28;21895;-81
2024/02/27 07:58:19;;;;;;;20.63;10.38;;;;;;;1.80;100.00;101256.06;5038309;28;20426;-81
2024/02/27 08:00:53;;;;;;;19.63;10.68;;;;;;;2.02;100.00;101253.97;5042718;28;20430;-80
2024/02/27 08:03:27;;;;;;;21.20;10.77;;;;;;;1.85;100.00;101250.88;5060829;28;20426;-80
2024/02/27 08:05:55;;;;;;;21.33;10.50;;;;;;;2.03;100.00;101258.28;5048933;28;21101;-80
2024/02/27 08:08:24;;;;;;;21.10;10.80;;;;;;;1.80;100.00;101256.88;5043141;28;20434;-80
2024/02/27 08:10:57;;;;;;;20.60;10.70;;;;;;;1.97;100.00;101248.38;5063965;28;20418;-81
2024/02/27 08:13:30;;;;;;;22.13;10.95;;;;;;;2.03;100.00;101251.06;5065039;28;20446;-81
2024/02/27 08:16:05;;;;;;;22.52;12.23;;;;;;;2.02;100.00;101256.66;5046498;28;20433;-81
2024/02/27 08:18:39;;;;;;;23.25;12.30;;;;;;;2.15;100.00;101250.44;5063925;28;20418;-80
2024/02/27 08:21:12;;;;;;;19.83;10.63;;;;;;;2.00;100.00;101254.19;5059361;28;20417;-80
2024/02/27 08:23:45;;;;;;;21.20;11.60;;;;;;;2.13;100.00;101257.88;5040254;28;20430;-81
2024/02/27 08:26:18;;;;;;;22.77;12.02;;;;;;;2.14;100.00;101256.81;5015009;28;20437;-81
2024/02/27 08:28:52;;;;;;;20.35;11.55;;;;;;;2.24;100.00;101262.59;5052986;28;20778;-80
2024/02/27 08:31:22;;;;;;;23.08;12.48;;;;;;;2.28;100.00;101269.19;5043840;28;20415;-81
2024/02/27 08:33:56;;;;;;;22.08;11.43;;;;;;;2.17;100.00;101269.84;5043044;28;20430;-80
2024/02/27 08:36:26;;;;;;;18.48;9.48;;;;;;;2.17;100.00;101270.66;5045918;28;20437;-80
2024/02/27 08:39:00;;;;;;;22.35;11.98;;;;;;;2.28;100.00;101269.19;5038139;28;20425;-81
2024/02/27 08:41:34;;;;;;;20.65;10.57;;;;;;;2.46;100.00;101271.22;5057859;28;20421;-80
2024/02/27 08:44:08;;;;;;;20.85;11.30;;;;;;;2.41;100.00;101280.94;5038150;28;20429;-80
2024/02/27 08:46:39;;;;;;;19.98;11.50;;;;;;;2.41;100.00;101272.91;5056108;28;20453;-80
2024/02/27 08:49:13;;;;;;;21.92;11.98;;;;;;;2.44;100.00;101277.84;5057936;28;20422;-81
2024/02/27 08:51:46;;;;;;;19.10;10.38;;;;;;;2.41;100.00;101279.09;5059400;28;20429;-80
2024/02/27 08:54:20;;;;;;;21.05;11.43;;;;;;;2.44;100.00;101272.47;5041572;28;20436;-80
2024/02/27 08:56:48;;;;;;;19.40;10.65;;;;;;;2.37;100.00;101273.28;5070026;28;20892;-80
2024/02/27 08:59:23;;;;;;;21.10;11.05;;;;;;;2.45;100.00;101276.81;5039000;28;20456;-80
2024/02/27 09:01:53;;;;;;;24.77;12.43;;;;;;;2.50;100.00;101277.81;5046489;28;20433;-80
2024/02/27 09:04:21;;;;;;;22.27;11.50;;;;;;;2.52;100.00;101273.06;5051179;28;20441;-83
2024/02/27 09:06:54;;;;;;;17.75;9.70;;;;;;;2.52;100.00;101277.63;5037233;28;20445;-81
2024/02/27 09:09:22;;;;;;;22.40;12.23;;;;;;;2.52;100.00;101272.25;5036651;28;20433;-81
2024/02/27 09:11:53;;;;;;;23.00;12.65;;;;;;;2.67;100.00;101263.94;5049643;28;20422;-81
2024/02/27 09:14:26;;;;;;;22.25;12.23;;;;;;;2.67;100.00;101270.13;5048152;28;20953;-80
2024/02/27 09:16:57;;;;;;;21.60;12.25;;;;;;;2.53;100.00;101273.91;5051259;28;21172;-80
2024/02/27 09:19:30;;;;;;;21.90;11.70;;;;;;;2.40;100.00;101265.88;5047601;28;20418;-79
2024/02/27 09:22:03;;;;;;;20.25;11.80;;;;;;;2.51;100.00;101270.56;5049478;28;21663;-81
2024/02/27 09:24:37;;;;;;;20.38;12.05;;;;;;;2.47;100.00;101269.34;5062223;28;20425;-81
2024/02/27 09:27:11;;;;;;;22.35;12.00;;;;;;;2.62;100.00;101275.28;5037810;28;20437;-80
2024/02/27 09:29:44;;;;;;;21.67;11.40;;;;;;;2.83;100.00;101270.66;5048977;28;20464;-80
2024/02/27 09:32:16;;;;;;;21.60;12.00;;;;;;;2.66;100.00;101275.69;5039852;28;20435;-80
2024/02/27 09:34:44;;;;;;;22.40;11.75;;;;;;;2.88;100.00;101271.66;5069000;28;20413;-81
2024/02/27 09:37:18;;;;;;;21.50;11.95;;;;;;;2.81;100.00;101275.44;5050060;28;20429;-81
2024/02/27 09:39:46;;;;;;;21.17;11.55;;;;;;;2.94;100.00;101274.53;5060154;28;22152;-80
2024/02/27 09:42:15;;;;;;;19.92;11.10;;;;;;;2.92;100.00;101277.47;5044486;28;20980;-81
2024/02/27 09:44:45;;;;;;;22.40;11.73;;;;;;;2.76;100.00;101259.94;5046775;28;20444;-80
2024/02/27 09:47:20;;;;;;;19.35;10.82;;;;;;;2.84;100.00;101267.75;5043177;28;20426;-80
2024/02/27 09:49:54;;;;;;;21.30;11.90;;;;;;;2.95;100.00;101262.75;5042530;28;20426;-80
2024/02/27 09:52:28;;;;;;;21.00;11.68;;;;;;;2.88;100.00;101260.09;5062684;28;20433;-80
2024/02/27 09:55:02;;;;;;;21.17;11.68;;;;;;;2.84;100.00;101261.56;5066889;28;20422;-80
2024/02/27 09:57:37;;;;;;;21.70;11.75;;;;;;;2.99;100.00;101259.41;5042655;28;20429;-80
2024/02/27 10:00:06;;;;;;;21.13;11.27;;;;;;;2.95;100.00;101263.56;5059030;28;20418;-81
2024/02/27 10:02:42;;;;;;;20.88;11.85;;;;;;;3.08;100.00;101268.09;5041140;28;20429;-81
2024/02/27 10:05:17;;;;;;;18.00;9.35;;;;;;;3.19;100.00;101278.16;5062456;28;20792;-80
2024/02/27 10:07:52;;;;;;;19.80;10.87;;;;;;;3.17;100.00;101265.94;5043233;28;20422;-81
2024/02/27 10:10:26;;;;;;;18.98;10.75;;;;;;;3.25;100.00;101267.56;5066408;28;20422;-80
2024/02/27 10:12:54;;;;;;;21.17;11.68;;;;;;;2.96;100.00;101277.88;5059446;28;20441;-81
2024/02/27 10:15:22;;;;;;;20.27;11.60;;;;;;;3.00;100.00;101273.72;5063033;28;20422;-80
2024/02/27 10:17:53;;;;;;;20.70;11.85;;;;;;;3.46;100.00;101271.78;5064033;28;21072;-81
2024/02/27 10:20:28;;;;;;;22.35;11.88;;;;;;;3.40;100.00;101276.97;5064672;28;20422;-80
2024/02/27 10:23:02;;;;;;;19.75;11.18;;;;;;;3.15;100.00;101270.72;5041814;28;20422;-80
2024/02/27 10:25:36;;;;;;;19.30;11.05;;;;;;;3.35;100.00;101271.41;5038344;28;20430;-80
2024/02/27 10:28:06;;;;;;;20.08;11.32;;;;;;;3.40;100.00;101265.41;5059179;28;20418;-81
2024/02/27 10:30:40;;;;;;;18.05;10.32;;;;;;;3.50;100.00;101265.72;5061053;28;20917;-81
2024/02/27 10:33:16;;;;;;;19.08;10.55;;;;;;;3.36;100.00;101267.69;5041623;28;20437;-82
2024/02/27 10:35:49;;;;;;;20.23;10.27;;;;;;;3.37;100.00;101273.88;5039665;28;20422;-81
2024/02/27 10:38:19;;;;;;;18.45;10.50;;;;;;;3.37;100.00;101271.19;5038636;28;20985;-81
2024/02/27 10:40:48;;;;;;;20.65;10.52;;;;;;;3.60;100.00;101267.13;5060259;28;20418;-79
2024/02/27 10:43:21;;;;;;;18.35;10.00;;;;;;;3.94;100.00;101271.19;5063037;28;20429;-80
2024/02/27 10:45:50;;;;;;;17.42;9.40;;;;;;;3.87;100.00;101265.84;5060708;28;20414;-80
2024/02/27 10:48:19;;;;;;;18.23;10.17;;;;;;;3.80;100.00;101266.94;5063592;28;20976;-80
2024/02/27 10:50:48;;;;;;;16.92;9.82;;;;;;;3.90;100.00;101268.09;5064020;28;20429;-80
2024/02/27 10:53:19;;;;;;;18.95;10.50;;;;;;;3.88;100.00;101270.19;5059840;28;20412;-80
2024/02/27 10:55:48;;;;;;;17.75;9.32;;;;;;;4.09;100.00;101276.22;5037609;28;20429;-80
2024/02/27 10:58:20;;;;;;;20.13;10.43;;;;;;;4.06;100.00;101269.41;5059358;28;20428;-80
2024/02/27 11:00:48;;;;;;;18.95;9.95;;;;;;;4.14;100.00;101268.28;5062841;28;20418;-80
2024/02/27 11:03:24;;;;;;;16.35;9.68;;;;;;;4.30;100.00;101274.97;5060352;28;20426;-80
2024/02/27 11:05:57;;;;;;;16.90;9.50;;;;;;;4.04;100.00;101273.38;5060164;28;20433;-80
2024/02/27 11:08:31;;;;;;;17.52;9.82;;;;;;;4.02;100.00;101284.38;5058099;28;20959;-80
2024/02/27 11:11:05;;;;;;;18.08;9.98;;;;;;;3.48;100.00;101281.28;5056556;28;22144;-80
2024/02/27 11:13:41;;;;;;;18.17;10.30;;;;;;;3.58;100.00;101284.31;5041421;28;20425;-80
2024/02/27 11:16:12;;;;;;;16.90;9.90;;;;;;;3.55;100.00;101287.44;5057671;28;20418;-80
2024/02/27 11:18:49;;;;;;;16.97;9.73;;;;;;;3.34;100.00;101294.00;5060452;28;20422;-80
2024/02/27 11:21:19;;;;;;;18.20;9.88;;;;;;;3.08;100.00;101294.97;5037597;28;20420;-79
2024/02/27 11:23:47;;;;;;;17.60;9.20;;;;;;;3.08;100.00;101294.97;5042308;28;20425;-81
2024/02/27 11:26:21;;;;;;;17.45;9.68;;;;;;;3.11;100.00;101294.53;5023415;28;20418;-80
2024/02/27 11:28:55;;;;;;;17.38;9.40;;;;;;;3.08;100.00;101289.59;5056471;28;20428;-80
2024/02/27 11:31:29;;;;;;;14.32;7.65;;;;;;;3.13;100.00;101280.88;5061784;28;20410;-79